DW2893 Weather Reports


Display with metric or nautical units.
time (UTC)temp
F
wind
direction
speed
MPH
gust
MPH
rain 1hr
in
rain 24hr
in
rain mn
in
humidity
%
barometer
mb
20180619200334 83 88 5.0 12.0 0.00 0.02 0.02 72 1011.0
20180619195834 83 137 5.0 12.0 0.00 0.02 0.02 71 1011.1
20180619195334 83 115 4.0 12.0 0.00 0.02 0.02 73 1011.1
20180619194834 82 128 5.0 12.0 0.00 0.02 0.02 73 1011.1
20180619193834 82 149 2.0 8.0 0.00 0.02 0.02 74 1011.2
20180619193334 81 125 5.0 14.0 0.00 0.02 0.02 74 1011.3
20180619192834 81 136 3.0 10.0 0.00 0.02 0.02 75 1011.4
20180619192334 81 131 2.0 8.0 0.00 0.02 0.02 74 1011.3
20180619191833 81 113 3.0 12.0 0.00 0.02 0.02 74 1011.3
20180619190834 82 135 9.0 16.0 0.00 0.02 0.02 72 1011.3
20180619185833 82 116 6.0 12.0 0.00 0.02 0.02 71 1011.3
20180619185333 83 115 7.0 14.0 0.00 0.02 0.02 71 1011.6
20180619184834 83 96 8.0 14.0 0.00 0.02 0.02 70 1011.6
20180619183834 83 111 5.0 14.0 0.00 0.02 0.02 71 1011.6
20180619182333 83 107 12.0 20.0 0.00 0.02 0.02 68 1011.9
20180619180834 83 118 9.0 15.0 0.00 0.02 0.02 69 1012.0
20180619180334 83 138 8.0 14.0 0.00 0.02 0.02 71 1012.1
20180619175334 83 116 5.0 14.0 0.00 0.02 0.02 71 1012.3
20180619174834 83 127 6.0 20.0 0.00 0.02 0.02 72 1012.4
20180619174333 82 148 7.0 16.0 0.00 0.02 0.02 72 1012.3
20180619173833 82 109 7.0 18.0 0.00 0.02 0.02 72 1012.3
20180619173334 82 104 7.0 14.0 0.00 0.02 0.02 72 1012.5
20180619172334 82 114 6.0 15.0 0.00 0.02 0.02 73 1012.5
20180619171834 82 122 5.0 13.0 0.00 0.02 0.02 74 1012.5
20180619171333 82 97 9.0 17.0 0.00 0.02 0.02 73 1012.5
20180619170834 81 133 10.0 20.0 0.00 0.02 0.02 74 1012.6
20180619170333 81 109 4.0 13.0 0.00 0.02 0.02 75 1012.5
20180619165834 81 117 10.0 18.0 0.00 0.02 0.02 74 1012.5
20180619164333 80 111 10.0 20.0 0.00 0.02 0.02 76 1012.4
20180619163334 81 127 9.0 21.0 0.00 0.02 0.02 74 1012.5
20180619162833 81 118 7.0 17.0 0.00 0.02 0.02 75 1012.5
20180619162333 81 124 9.0 18.0 0.00 0.02 0.02 74 1012.6
20180619161334 80 86 4.0 20.0 0.00 0.02 0.02 76 1012.6
20180619160833 80 115 9.0 18.0 0.00 0.02 0.02 77 1012.6
20180619155833 80 153 5.0 12.0 0.00 0.02 0.02 78 1012.6
20180619155334 80 107 9.0 20.0 0.00 0.02 0.02 77 1012.7
20180619154833 80 101 6.0 20.0 0.00 0.02 0.02 78 1012.7
20180619154334 80 135 5.0 13.0 0.00 0.02 0.02 79 1012.7
20180619153834 79 124 7.0 18.0 0.00 0.02 0.02 79 1012.6
20180619153333 79 111 11.0 16.0 0.00 0.02 0.02 79 1012.6
20180619152833 79 139 9.0 18.0 0.00 0.02 0.02 80 1012.6
20180619151833 78 111 6.0 13.0 0.00 0.02 0.02 85 1013.0
20180619151333 77 124 7.0 15.0 0.00 0.02 0.02 85 1013.0
20180619150333 76 116 9.0 14.0 0.00 0.02 0.02 86 1013.2
20180619145333 76 111 10.0 18.0 0.00 0.02 0.02 86 1013.2
20180619144833 76 122 6.0 14.0 0.00 0.02 0.02 86 1013.3
20180619144333 76 136 8.0 17.0 0.00 0.02 0.02 86 1013.3
20180619143833 76 137 9.0 16.0 0.00 0.02 0.02 87 1013.3
20180619143332 76 130 5.0 12.0 0.00 0.02 0.02 87 1013.3
20180619142833 76 123 7.0 16.0 0.00 0.02 0.02 88 1013.4
20180619141833 76 110 5.0 13.0 0.00 0.02 0.02 88 1013.3
20180619141333 75 114 6.0 12.0 0.00 0.02 0.02 89 1013.2
20180619140833 75 110 6.0 13.0 0.00 0.02 0.02 89 1013.2
20180619140333 75 111 8.0 14.0 0.00 0.02 0.02 90 1013.2
20180619135833 75 97 3.0 12.0 0.00 0.02 0.02 90 1013.2
20180619135333 75 112 6.0 14.0 0.00 0.02 0.02 90 1013.2
20180619134833 75 112 5.0 12.0 0.00 0.02 0.02 90 1013.2
20180619134333 75 102 3.0 12.0 0.00 0.02 0.02 90 1013.3
20180619133833 75 100 6.0 12.0 0.00 0.02 0.02 90 1013.3
20180619132833 74 107 5.0 9.0 0.00 0.02 0.02 91 1013.2
20180619132333 74 101 2.0 6.0 0.00 0.02 0.02 91 1013.2
20180619130832 74 117 7.0 12.0 0.00 0.02 0.02 91 1013.2
20180619130333 74 102 5.0 9.0 0.00 0.02 0.02 91 1013.1
20180619125832 73 124 5.0 12.0 0.00 0.02 0.02 91 1013.2
20180619124832 73 114 5.0 12.0 0.00 0.02 0.02 91 1013.1
20180619124332 73 116 3.0 12.0 0.00 0.02 0.02 91 1013.1
20180619123833 73 120 3.0 12.0 0.00 0.02 0.02 91 1013.0
20180619123333 73 111 4.0 8.0 0.00 0.02 0.02 91 1013.1
20180619121833 73 110 3.0 7.0 0.01 0.02 0.02 91 1012.9
20180619121333 73 117 6.0 9.0 0.01 0.02 0.02 91 1013.1
20180619120832 73 99 1.0 9.0 0.01 0.02 0.02 91 1013.0
20180619115332 73 100 2.0 9.0 0.01 0.02 0.02 91 1013.0
20180619114333 73 121 2.0 7.0 0.01 0.02 0.02 91 1013.0
20180619113333 73 124 4.0 9.0 0.01 0.02 0.02 91 1012.8
20180619112333 73 134 2.0 12.0 0.00 0.01 0.01 91 1012.7
20180619111832 73 134 6.0 9.0 0.00 0.01 0.01 91 1012.8
20180619111332 73 108 3.0 6.0 0.00 0.01 0.01 91 1012.7
20180619110832 73 98 2.0 7.0 0.00 0.01 0.01 91 1012.8
20180619105833 73 97 1.0 6.0 0.00 0.01 0.01 91 1012.7
20180619105332 73 114 3.0 6.0 0.00 0.01 0.01 91 1012.6
20180619104832 73 116 2.0 6.0 0.00 0.01 0.01 91 1012.4
20180619104333 73 122 3.0 6.0 0.00 0.01 0.01 91 1012.4
20180619103333 73 161 4.0 6.0 0.00 0.01 0.01 91 1012.3
20180619102832 73 138 5.0 12.0 0.00 0.01 0.01 91 1012.3
20180619102332 73 128 3.0 9.0 0.00 0.01 0.01 91 1012.3
20180619101833 73 137 4.0 8.0 0.00 0.01 0.01 90 1012.3
20180619100333 73 137 6.0 9.0 0.01 0.01 0.01 90 1012.2
20180619095832 73 126 5.0 12.0 0.01 0.01 0.01 90 1012.3
20180619095333 73 127 4.0 12.0 0.01 0.01 0.01 90 1012.3
20180619094832 73 141 3.0 10.0 0.01 0.01 0.01 90 1012.2
20180619094332 73 147 6.0 12.0 0.01 0.01 0.01 89 1012.2
20180619093333 74 135 6.0 12.0 0.01 0.01 0.01 88 1012.1
20180619092834 74 147 5.0 12.0 0.01 0.01 0.01 88 1012.1
20180619092332 74 136 6.0 10.0 0.01 0.01 0.01 88 1012.1
20180619091332 75 131 7.0 15.0 0.00 0.00 0.00 86 1011.9
20180619090832 75 144 3.0 12.0 0.00 0.00 0.00 86 1011.9
20180619090332 75 140 5.0 13.0 0.00 0.00 0.00 85 1011.9
20180619085832 75 135 2.0 12.0 0.00 0.00 0.00 85 1011.9
20180619085332 75 134 2.0 8.0 0.00 0.00 0.00 84 1011.7
20180619084832 75 142 2.0 12.0 0.00 0.00 0.00 84 1011.7
20180619084332 76 144 6.0 12.0 0.00 0.00 0.00 84 1011.7
20180619083832 76 140 6.0 12.0 0.00 0.00 0.00 83 1011.7
20180619081332 76 141 2.0 12.0 0.00 0.00 0.00 81 1011.6
20180619080832 76 168 6.0 13.0 0.00 0.00 0.00 81 1011.6
20180619080332 76 146 7.0 14.0 0.00 0.00 0.00 81 1011.7
20180619075831 76 147 7.0 13.0 0.00 0.00 0.00 81 1011.7
20180619073832 76 157 7.0 14.0 0.00 0.00 0.00 81 1011.8
20180619073332 76 154 2.0 9.0 0.00 0.00 0.00 81 1011.8
20180619072332 76 161 5.0 12.0 0.00 0.00 0.00 81 1011.8
20180619071332 76 140 5.0 9.0 0.00 0.00 0.00 81 1011.8
20180619070332 77 159 5.0 14.0 0.00 0.00 0.00 80 1011.8
20180619065832 77 169 4.0 13.0 0.00 0.00 0.00 79 1011.9
20180619065332 77 144 8.0 15.0 0.00 0.00 0.00 79 1012.0
20180619064832 77 151 9.0 17.0 0.00 0.00 0.00 79 1012.1
20180619064332 77 149 9.0 16.0 0.00 0.00 0.00 78 1012.0
20180619063832 77 143 7.0 20.0 0.00 0.00 0.00 78 1012.1
20180619063332 77 138 11.0 23.0 0.00 0.00 0.00 78 1012.0
20180619062832 77 144 11.0 20.0 0.00 0.00 0.00 78 1011.9
20180619061832 78 139 9.0 20.0 0.00 0.00 0.00 78 1012.0
20180619061331 78 133 7.0 17.0 0.00 0.00 0.00 78 1012.1
20180619060832 78 145 8.0 20.0 0.00 0.00 0.00 78 1012.1
20180619060332 78 132 12.0 21.0 0.00 0.00 0.00 78 1012.1
20180619055831 78 140 10.0 18.0 0.00 0.00 0.00 77 1012.1
20180619054831 78 134 6.0 15.0 0.00 0.00 0.00 77 1012.2
20180619054331 78 144 6.0 21.0 0.00 0.00 0.00 77 1012.1
20180619053832 78 134 12.0 21.0 0.00 0.00 0.00 76 1012.2
20180619052331 79 177 7.0 18.0 0.00 0.00 0.00 76 1012.4
20180619051831 79 122 10.0 16.0 0.00 0.00 0.00 75 1012.6
20180619050954 79 132 3.0 10.0 0.00 0.00 0.00 76 1012.5
20180619045831 79 133 8.0 20.0 0.00 0.00 0.00 75 1012.6
20180619045331 79 121 10.0 16.0 0.00 0.00 0.00 75 1012.7
20180619044832 79 137 9.0 17.0 0.00 0.00 0.00 75 1012.6
20180619044331 79 119 7.0 21.0 0.00 0.00 0.00 75 1012.7
20180619043832 79 149 8.0 18.0 0.00 0.00 0.00 76 1012.7
20180619042331 79 132 6.0 17.0 0.00 0.00 0.00 75 1012.9
20180619041332 79 138 9.0 20.0 0.00 0.00 0.00 75 1012.5
20180619040831 79 139 8.0 15.0 0.00 0.00 0.00 75 1012.5
20180619035831 80 149 6.0 14.0 0.00 0.00 0.00 75 1012.4
20180619034831 80 123 5.0 14.0 0.00 0.00 0.00 75 1012.3
20180619034331 80 122 5.0 13.0 0.00 0.00 0.00 75 1012.3
20180619033831 80 138 10.0 16.0 0.00 0.00 0.00 75 1012.3
20180619033332 80 137 9.0 20.0 0.00 0.00 0.00 74 1012.2
20180619032831 80 132 8.0 15.0 0.00 0.00 0.00 74 1012.1
20180619031332 80 135 10.0 20.0 0.00 0.00 0.00 73 1012.2
20180619030832 81 139 9.0 15.0 0.00 0.00 0.00 73 1012.1
20180619030331 81 137 7.0 18.0 0.00 0.00 0.00 73 1012.2
20180619025831 81 129 10.0 18.0 0.00 0.00 0.00 73 1012.2
20180619025331 81 130 12.0 18.0 0.00 0.00 0.00 72 1012.1
20180619024831 81 129 10.0 20.0 0.00 0.00 0.00 72 1012.1
20180619024331 81 136 7.0 20.0 0.00 0.00 0.00 71 1012.1
20180619023831 81 138 10.0 24.0 0.00 0.00 0.00 71 1012.1
20180619023331 81 138 10.0 24.0 0.00 0.00 0.00 70 1012.0
20180619022331 82 134 13.0 25.0 0.00 0.00 0.00 69 1011.9
20180619021831 82 141 10.0 22.0 0.00 0.00 0.00 68 1011.7
20180619021331 82 146 12.0 20.0 0.00 0.00 0.00 68 1011.7
20180619020831 83 137 10.0 20.0 0.00 0.00 0.00 68 1011.6
20180619020330 83 150 9.0 15.0 0.00 0.00 0.00 68 1011.6
20180619015831 83 145 7.0 15.0 0.00 0.00 0.00 67 1011.5
20180619014831 83 126 8.0 20.0 0.00 0.00 0.00 66 1011.4
20180619013331 84 129 9.0 20.0 0.00 0.00 0.00 66 1011.1
20180619012830 84 125 8.0 25.0 0.00 0.00 0.00 65 1010.9
20180619012331 84 132 7.0 20.0 0.00 0.00 0.00 64 1010.9
20180619011831 85 127 7.0 22.0 0.00 0.00 0.00 64 1010.9
20180619011331 85 135 12.0 22.0 0.00 0.00 0.00 64 1010.8
20180619010830 86 123 11.0 26.0 0.00 0.00 0.00 64 1010.9
20180619010330 86 120 9.0 22.0 0.00 0.00 0.00 64 1010.9
20180619005831 86 123 10.0 23.0 0.00 0.00 0.00 63 1010.8
20180619005331 86 120 5.0 23.0 0.00 0.00 0.00 62 1010.7
20180619004831 87 126 12.0 21.0 0.00 0.00 0.00 61 1010.7
20180619004331 87 132 9.0 21.0 0.00 0.00 0.00 60 1010.7
20180619003830 87 125 13.0 24.0 0.00 0.00 0.00 59 1010.7
20180619003330 88 117 10.0 25.0 0.00 0.00 0.00 59 1010.6
20180619002830 88 115 17.0 26.0 0.00 0.00 0.00 59 1010.7
20180619001831 88 106 10.0 20.0 0.00 0.00 0.00 60 1010.5
20180619000831 88 98 7.0 16.0 0.00 0.00 0.00 59 1010.8
20180618235331 88 116 8.0 20.0 0.00 0.00 0.00 58 1010.8
20180618234830 88 105 12.0 22.0 0.00 0.00 0.00 58 1010.8
20180618233830 89 103 7.0 16.0 0.00 0.00 0.00 58 1010.7
20180618233330 89 101 8.0 16.0 0.00 0.00 0.00 56 1010.6
20180618232830 89 106 12.0 20.0 0.00 0.00 0.00 57 1010.4
20180618231830 89 113 9.0 16.0 0.00 0.00 0.00 58 1010.5
20180618231330 89 105 9.0 18.0 0.00 0.00 0.00 57 1010.5
20180618225830 90 110 7.0 15.0 0.00 0.00 0.00 58 1010.5
20180618224830 90 88 8.0 18.0 0.00 0.00 0.00 57 1010.6
20180618224330 90 130 9.0 20.0 0.00 0.00 0.00 58 1010.7
20180618223330 90 140 7.0 14.0 0.00 0.00 0.00 57 1011.0
20180618222830 90 111 10.0 20.0 0.00 0.00 0.00 57 1011.2
20180618222330 89 112 12.0 18.0 0.00 0.00 0.00 59 1011.0
20180618220830 89 111 10.0 16.0 0.00 0.00 0.00 58 1011.1
20180618220330 89 99 9.0 16.0 0.00 0.00 0.00 58 1011.2
20180618215830 90 125 7.0 14.0 0.00 0.00 0.00 58 1011.3
20180618215330 90 114 7.0 13.0 0.00 0.00 0.00 57 1011.5
20180618214829 90 156 5.0 14.0 0.00 0.00 0.00 59 1011.5
20180618214330 90 127 7.0 15.0 0.00 0.00 0.00 59 1011.7
20180618212830 89 130 9.0 18.0 0.00 0.00 0.00 59 1011.5
20180618212330 89 95 7.0 21.0 0.00 0.00 0.00 58 1011.5
20180618210830 90 96 9.0 15.0 0.00 0.00 0.00 57 1011.7
20180618210330 90 110 7.0 13.0 0.00 0.00 0.00 58 1011.7
20180618205830 91 88 9.0 15.0 0.00 0.00 0.00 57 1011.6
20180618205330 92 97 8.0 14.0 0.00 0.00 0.00 56 1011.7
20180618204830 91 139 8.0 14.0 0.00 0.00 0.00 59 1011.7
20180618204329 90 129 6.0 16.0 0.00 0.00 0.00 58 1011.6
20180618202830 90 110 7.0 16.0 0.00 0.00 0.00 60 1011.9